Time;durP1;ratioP1;P1;durP2;ratioP2;P2;SDS_P1;SDS_P2;PMS_P1;PMS_P2;Temp;Humidity;BMP_temperature;BMP_pressure;BME280_temperature;BME280_humidity;BME280_pressure;Samples;Min_cycle;Max_cycle;Signal;HPM_P1;HPM_P2
2023/09/12 00:01:06;;;;;;;4.18;3.30;;;;;;;;;;5093703;28;20204;-65
2023/09/12 00:03:34;;;;;;;7.30;3.33;;;;;;;;;;5088166;28;20205;-66
2023/09/12 00:06:01;;;;;;;4.38;4.07;;;;;;;;;;5091312;28;20255;-65
2023/09/12 00:08:27;;;;;;;11.88;5.30;;;;;;;;;;5092553;28;20226;-65
2023/09/12 00:11:04;;;;;;;6.07;4.85;;;;;;;;;;5091513;28;20698;-65
2023/09/12 00:13:31;;;;;;;6.43;5.78;;;;;;;15.43;nan;95338.59;5090310;28;20251;-65
2023/09/12 00:15:58;;;;;;;8.32;6.22;;;;;;;;;;5091397;28;20244;-65
2023/09/12 00:18:25;;;;;;;7.95;7.05;;;;;;;;;;5090677;28;20288;-65
2023/09/12 00:20:53;;;;;;;6.97;6.03;;;;;;;;;;5092742;28;22439;-65
2023/09/12 00:23:19;;;;;;;8.30;5.78;;;;;;;;;;5093853;28;20671;-63
2023/09/12 00:25:46;;;;;;;6.90;5.45;;;;;;;;;;5092432;28;20201;-64
2023/09/12 00:28:12;;;;;;;7.13;5.32;;;;;;;;;;5096913;28;20240;-64
2023/09/12 00:30:39;;;;;;;5.88;4.68;;;;;;;;;;5088574;28;20201;-65
2023/09/12 00:33:05;;;;;;;6.75;5.60;;;;;;;;;;5091180;28;20209;-64
2023/09/12 00:35:31;;;;;;;10.93;5.85;;;;;;;;;;5088284;28;20233;-64
2023/09/12 00:37:59;;;;;;;11.80;8.20;;;;;;;;;;5091130;28;20271;-65
2023/09/12 00:40:26;;;;;;;11.63;8.40;;;;;;;;;;5092779;28;20356;-64
2023/09/12 00:42:52;;;;;;;8.27;7.63;;;;;;;;;;5090553;28;20210;-64
2023/09/12 00:45:19;;;;;;;13.25;6.80;;;;;;;;;;5092285;28;20309;-64
2023/09/12 00:47:45;;;;;;;11.48;5.53;;;;;;;;;;5089272;28;20627;-64
2023/09/12 00:50:12;;;;;;;5.97;5.22;;;;;;;;;;5091229;28;20193;-63
2023/09/12 00:52:39;;;;;;;5.25;4.95;;;;;;;;;;5091991;28;20308;-64
2023/09/12 00:55:07;;;;;;;8.05;5.43;;;;;;;;;;5087190;28;20248;-64
2023/09/12 00:57:34;;;;;;;5.63;4.40;;;;;;;;;;5088281;28;20656;-64
2023/09/12 01:00:03;;;;;;;4.68;3.85;;;;;;;;;;5092863;28;20201;-64
2023/09/12 01:02:30;;;;;;;6.80;3.95;;;;;;;;;;5088158;28;20205;-65
2023/09/12 01:04:57;;;;;;;5.22;3.92;;;;;;;;;;5089362;28;20633;-64
2023/09/12 01:07:23;;;;;;;4.50;4.10;;;;;;;;;;5085946;28;20193;-65
2023/09/12 01:09:50;;;;;;;4.82;4.47;;;;;;;;;;5087969;28;20610;-64
2023/09/12 01:12:18;;;;;;;5.57;4.93;;;;;;;;;;5091530;28;20197;-64
2023/09/12 01:14:44;;;;;;;4.35;4.03;;;;;;;;;;5091621;28;20225;-65
2023/09/12 01:17:11;;;;;;;5.65;5.15;;;;;;;;;;5093417;28;20364;-65
2023/09/12 01:19:37;;;;;;;7.63;4.97;;;;;;;;;;5094957;28;20301;-65
2023/09/12 01:22:11;;;;;;;5.45;4.95;;;;;;;;;;5095058;28;20284;-65
2023/09/12 01:25:03;;;;;;;7.10;6.40;;;;;;;;;;5096081;28;20236;-64
2023/09/12 01:27:33;;;;;;;5.97;5.55;;;;;;;;;;5094818;28;20635;-64
2023/09/12 01:30:03;;;;;;;5.47;4.57;;;;;;;;;;5094041;28;20193;-66
2023/09/12 01:32:30;;;;;;;6.72;4.05;;;;;;;;;;5095618;28;20605;-64
2023/09/12 01:34:56;;;;;;;9.07;5.38;;;;;;;;;;5097487;28;20240;-65
2023/09/12 01:37:23;;;;;;;5.53;5.13;;;;;;;;;;5092979;28;21476;-66
2023/09/12 01:39:49;;;;;;;6.15;4.65;;;;;;;;;;5094489;28;20317;-64
2023/09/12 01:42:17;;;;;;;6.43;4.72;;;;;;;;;;5093159;28;20225;-64
2023/09/12 01:44:45;;;;;;;9.32;6.57;;;;;;;;;;5095058;28;20204;-64
2023/09/12 01:47:12;;;;;;;9.73;7.30;;;;;;;;;;5093442;28;20215;-65
2023/09/12 01:49:40;;;;;;;9.52;8.43;;;;;;;;;;5094386;28;20287;-65
2023/09/12 01:52:06;;;;;;;6.20;5.60;;;;;;;;;;5093529;28;20744;-65
2023/09/12 01:54:33;;;;;;;7.25;5.65;;;;;;;;;;5093177;28;20201;-65
2023/09/12 01:57:00;;;;;;;5.03;4.55;;;;;;;;;;5096378;28;20312;-66
2023/09/12 01:59:26;;;;;;;7.18;4.35;;;;;;;;;;5091460;28;20760;-67
2023/09/12 02:01:54;;;;;;;4.43;4.03;;;;;;;;;;5096841;28;20699;-65
2023/09/12 02:04:21;;;;;;;10.20;4.90;;;;;;;;;;5096209;28;20205;-66
2023/09/12 02:06:47;;;;;;;6.47;3.90;;;;;;;;;;5094406;28;20254;-65
2023/09/12 02:09:13;;;;;;;5.65;5.05;;;;;;;;;;5097663;28;20221;-64
2023/09/12 02:11:40;;;;;;;7.50;5.15;;;;;;;;;;5094452;28;20250;-66
2023/09/12 02:14:06;;;;;;;9.18;4.57;;;;;;;;;;5097245;28;20209;-65
2023/09/12 02:16:33;;;;;;;4.40;3.97;;;;;;;;;;5104825;28;20252;-64
2023/09/12 02:19:00;;;;;;;5.70;4.90;;;;;;;;;;5099219;28;20697;-65
2023/09/12 02:21:27;;;;;;;9.40;4.18;;;;;;;;;;5094627;28;20352;-65
2023/09/12 02:23:53;;;;;;;7.15;4.82;;;;;;;;;;5102647;28;20229;-65
2023/09/12 02:26:20;;;;;;;10.52;4.63;;;;;;;;;;5103412;28;20333;-65
2023/09/12 02:28:46;;;;;;;5.90;3.88;;;;;;;;;;5096530;28;20221;-65
2023/09/12 02:31:13;;;;;;;7.63;4.75;;;;;;;;;;5095385;28;20197;-65
2023/09/12 02:33:39;;;;;;;7.40;4.03;;;;;;;;;;5093283;28;20209;-65
2023/09/12 02:36:07;;;;;;;5.63;3.40;;;;;;;;;;5095447;28;20286;-65
2023/09/12 02:38:34;;;;;;;7.70;4.75;;;;;;;;;;5090759;28;20222;-65
2023/09/12 02:41:01;;;;;;;13.25;4.97;;;;;;;;;;5095512;28;20710;-65
2023/09/12 02:43:28;;;;;;;9.18;3.90;;;;;;;;;;5091415;28;20600;-65
2023/09/12 02:45:54;;;;;;;7.60;3.60;;;;;;;;;;5092562;28;20198;-65
2023/09/12 02:48:21;;;;;;;6.82;3.95;;;;;;;;;;5093967;28;20244;-66
2023/09/12 02:50:47;;;;;;;6.93;3.45;;;;;;;;;;5096741;28;20197;-66
2023/09/12 02:53:15;;;;;;;11.55;4.18;;;;;;;;;;5091432;28;20718;-64
2023/09/12 02:55:42;;;;;;;7.28;3.45;;;;;;;;;;5090331;28;20945;-65
2023/09/12 02:58:09;;;;;;;5.00;4.40;;;;;;;;;;5088727;28;20291;-65
2023/09/12 03:00:38;;;;;;;12.63;4.57;;;;;;;;;;5091822;28;20372;-64
2023/09/12 03:03:05;;;;;;;15.27;4.78;;;;;;;;;;5093541;28;20236;-65
2023/09/12 03:05:31;;;;;;;8.05;3.97;;;;;;;;;;5096217;28;20227;-64
2023/09/12 03:07:58;;;;;;;5.03;4.53;;;;;;;;;;5091498;28;20193;-65
2023/09/12 03:10:25;;;;;;;16.63;6.13;;;;;;;;;;5090825;28;20283;-65
2023/09/12 03:12:52;;;;;;;16.98;4.90;;;;;;;;;;5096491;28;20221;-67
2023/09/12 03:15:18;;;;;;;10.70;5.82;;;;;;;;;;5094895;28;20229;-67
2023/09/12 03:17:45;;;;;;;10.80;4.93;;;;;;;;;;5095084;28;20255;-65
2023/09/12 03:20:12;;;;;;;9.95;4.30;;;;;;;;;;5095790;28;20290;-65
2023/09/12 03:22:38;;;;;;;4.55;3.65;;;;;;;;;;5094779;28;20278;-66
2023/09/12 03:25:05;;;;;;;4.97;4.53;;;;;;;;;;5094587;28;20863;-65
2023/09/12 03:27:33;;;;;;;11.48;4.55;;;;;;;;;;5090476;28;20220;-65
2023/09/12 03:30:00;;;;;;;8.48;4.38;;;;;;;;;;5092855;28;20193;-65
2023/09/12 03:32:26;;;;;;;6.65;5.07;;;;;;;;;;5093388;28;20756;-65
2023/09/12 03:34:53;;;;;;;7.80;5.30;;;;;;;;;;5091235;28;20233;-65
2023/09/12 03:37:19;;;;;;;12.07;5.43;;;;;;;;;;5090305;28;20623;-65
2023/09/12 03:39:45;;;;;;;14.80;5.13;;;;;;;;;;5096890;28;20622;-65
2023/09/12 03:42:12;;;;;;;12.63;5.40;;;;;;;;;;5095165;28;20749;-66
2023/09/12 03:44:40;;;;;;;10.48;4.85;;;;;;;;;;5091712;28;20233;-67
2023/09/12 03:47:06;;;;;;;8.40;4.72;;;;;;;;;;5095255;28;20209;-66
2023/09/12 03:49:33;;;;;;;10.27;4.93;;;;;;;;;;5096665;28;20658;-67
2023/09/12 03:51:59;;;;;;;7.97;5.22;;;;;;;;;;5092970;28;20576;-67
2023/09/12 03:54:25;;;;;;;10.73;4.50;;;;;;;;;;5092563;28;20225;-65
2023/09/12 03:56:52;;;;;;;10.18;4.82;;;;;;;;;;5091890;28;20743;-65
2023/09/12 03:59:18;;;;;;;10.95;6.57;;;;;;;;;;5093488;28;20233;-66
2023/09/12 04:01:47;;;;;;;13.65;5.93;;;;;;;;;;5091891;28;20200;-65
2023/09/12 04:04:15;;;;;;;7.53;6.63;;;;;;;;;;5089364;28;20194;-65
2023/09/12 04:06:41;;;;;;;10.02;5.85;;;;;;;;;;5092025;28;20262;-65
2023/09/12 04:09:07;;;;;;;9.88;4.65;;;;;;;;;;5090129;28;20232;-64
2023/09/12 04:11:34;;;;;;;13.68;5.75;;;;;;;;;;5092228;28;20212;-65
2023/09/12 04:14:00;;;;;;;11.68;4.65;;;;;;;;;;5098086;28;20301;-65
2023/09/12 04:16:27;;;;;;;17.05;6.35;;;;;;;;;;5091225;28;20254;-65
2023/09/12 04:18:54;;;;;;;29.50;13.05;;;;;;;;;;5088603;28;20238;-65
2023/09/12 04:21:21;;;;;;;17.25;7.38;;;;;;;;;;5088405;28;20248;-65
2023/09/12 04:23:49;;;;;;;11.50;5.93;;;;;;;;;;5090508;28;20193;-65
2023/09/12 04:26:16;;;;;;;11.35;5.45;;;;;;;;;;5090591;28;20219;-65
2023/09/12 04:28:43;;;;;;;6.13;5.57;;;;;;;;;;5090814;28;20589;-65
2023/09/12 04:31:10;;;;;;;28.83;11.07;;;;;;;;;;5091644;28;20263;-64
2023/09/12 04:33:36;;;;;;;24.10;15.07;;;;;;;;;;5090298;28;20202;-66
2023/09/12 04:36:04;;;;;;;12.40;6.70;;;;;;;;;;5096430;28;20229;-66
2023/09/12 04:38:32;;;;;;;8.25;5.22;;;;;;;;;;5098425;28;20663;-66
2023/09/12 04:41:02;;;;;;;10.40;5.40;;;;;;;;;;5095305;28;20291;-66
2023/09/12 04:43:29;;;;;;;14.02;5.55;;;;;;;;;;5093080;28;20202;-64
2023/09/12 04:45:55;;;;;;;9.18;5.95;;;;;;;;;;5094194;28;20345;-64
2023/09/12 04:48:22;;;;;;;10.77;5.43;;;;;;;;;;5099233;28;20206;-65
2023/09/12 04:50:49;;;;;;;7.88;4.60;;;;;;;;;;5094600;28;20197;-64
2023/09/12 04:53:16;;;;;;;39.05;20.42;;;;;;;;;;5096805;28;20225;-64
2023/09/12 04:55:43;;;;;;;49.13;27.73;;;;;;;;;;5100147;28;20208;-65
2023/09/12 04:58:09;;;;;;;25.25;16.25;;;;;;;;;;5093025;28;20264;-66
2023/09/12 05:00:36;;;;;;;14.98;8.48;;;;;;;;;;5095745;28;20682;-65
2023/09/12 05:03:03;;;;;;;9.07;6.40;;;;;;;;;;5092672;28;20216;-64
2023/09/12 05:05:30;;;;;;;11.50;4.93;;;;;;;;;;5092141;28;20197;-65
2023/09/12 05:07:56;;;;;;;9.50;5.50;;;;;;;;;;5095152;28;20675;-64
2023/09/12 05:10:24;;;;;;;8.05;5.43;;;;;;;;;;5094435;28;20240;-64
2023/09/12 05:12:50;;;;;;;6.47;4.47;;;;;;;;;;5092796;28;20221;-65
2023/09/12 05:15:17;;;;;;;19.00;5.78;;;;;;;;;;5095159;28;20284;-63
2023/09/12 05:17:43;;;;;;;7.95;4.90;;;;;;;;;;5095073;28;20229;-64
2023/09/12 05:20:10;;;;;;;7.68;4.97;;;;;;;;;;5095028;28;20640;-64
2023/09/12 05:22:37;;;;;;;11.80;5.03;;;;;;;;;;5093438;28;20773;-65
2023/09/12 05:25:03;;;;;;;6.50;4.40;;;;;;;;;;5098283;28;20244;-65
2023/09/12 05:27:31;;;;;;;7.95;5.30;;;;;;;;;;5092889;28;20206;-66
2023/09/12 05:29:57;;;;;;;9.52;5.13;;;;;;;;;;5093089;28;20241;-65
2023/09/12 05:32:24;;;;;;;6.53;5.80;;;;;;;;;;5095334;28;20691;-66
2023/09/12 05:34:50;;;;;;;11.75;6.50;;;;;;;;;;5097884;28;20217;-67
2023/09/12 05:37:17;;;;;;;9.45;5.95;;;;;;;;;;5103439;28;20258;-65
2023/09/12 05:39:43;;;;;;;9.95;6.47;;;;;;;;;;5094536;28;20340;-66
2023/09/12 05:42:10;;;;;;;9.63;6.28;;;;;;;;;;5092944;28;20241;-66
2023/09/12 05:44:37;;;;;;;12.77;5.72;;;;;;;;;;5096748;28;20201;-66
2023/09/12 05:47:04;;;;;;;10.75;5.68;;;;;;;;;;5095189;28;20198;-64
2023/09/12 05:49:31;;;;;;;6.97;4.57;;;;;;;;;;5095247;28;20724;-66
2023/09/12 05:51:57;;;;;;;6.35;4.55;;;;;;;;;;5095346;28;20691;-66
2023/09/12 05:54:24;;;;;;;7.60;4.82;;;;;;;;;;5092487;28;20655;-66
2023/09/12 05:56:51;;;;;;;10.85;5.20;;;;;;;;;;5097871;28;20353;-66
2023/09/12 05:59:17;;;;;;;8.40;4.80;;;;;;;;;;5096987;28;20303;-65
2023/09/12 06:01:45;;;;;;;6.45;4.93;;;;;;;;;;5097864;28;20289;-66
2023/09/12 06:04:11;;;;;;;12.60;4.78;;;;;;;;;;5095121;28;20262;-66
2023/09/12 06:06:38;;;;;;;9.30;4.55;;;;;;;;;;5092560;28;20692;-66
2023/09/12 06:09:05;;;;;;;4.82;4.40;;;;;;;;;;5093089;28;20197;-67
2023/09/12 06:11:31;;;;;;;9.07;4.70;;;;;;;;;;5094549;28;20201;-66
2023/09/12 06:13:58;;;;;;;7.63;5.28;;;;;;;;;;5094610;28;20204;-66
2023/09/12 06:16:24;;;;;;;10.77;5.28;;;;;;;;;;5096533;28;20209;-65
2023/09/12 06:18:53;;;;;;;10.00;4.80;;;;;;;;;;5093678;28;20218;-67
2023/09/12 06:21:21;;;;;;;12.52;5.43;;;;;;;;;;5098662;28;20777;-66
2023/09/12 06:23:47;;;;;;;8.80;4.97;;;;;;;;;;5099453;28;20289;-67
2023/09/12 06:26:14;;;;;;;9.82;4.53;;;;;;;;;;5092216;28;20205;-67
2023/09/12 06:28:41;;;;;;;5.95;5.20;;;;;;;;;;5092924;28;20209;-66
2023/09/12 06:31:09;;;;;;;11.13;5.05;;;;;;;;;;5093153;28;20201;-65
2023/09/12 06:33:35;;;;;;;12.55;4.63;;;;;;;;;;5091800;28;20212;-67
2023/09/12 06:36:03;;;;;;;9.00;4.63;;;;;;;;;;5092940;28;20198;-67
2023/09/12 06:38:30;;;;;;;6.63;4.60;;;;;;;;;;5090842;28;20220;-66
2023/09/12 06:40:57;;;;;;;10.00;3.60;;;;;;;;;;5094172;28;20201;-66
2023/09/12 06:43:23;;;;;;;6.70;4.43;;;;;;;;;;5093204;28;20643;-66
2023/09/12 06:45:50;;;;;;;4.22;3.90;;;;;;;;;;5096136;28;20197;-65
2023/09/12 06:48:17;;;;;;;6.93;4.13;;;;;;;;;;5090087;28;20200;-67
2023/09/12 06:50:43;;;;;;;13.48;5.38;;;;;;;;;;5091822;28;20324;-67
2023/09/12 06:53:11;;;;;;;11.68;5.55;;;;;;;;;;5093962;28;20233;-69
2023/09/12 06:55:38;;;;;;;7.75;4.32;;;;;;;;;;5089367;28;20200;-65
2023/09/12 06:58:04;;;;;;;5.07;4.57;;;;;;;;;;5090380;28;20233;-67
2023/09/12 07:00:31;;;;;;;6.15;4.32;;;;;;;;;;5090350;28;20247;-68
2023/09/12 07:02:57;;;;;;;8.25;5.13;;;;;;;;;;5093255;28;20768;-66
2023/09/12 07:05:24;;;;;;;8.70;4.72;;;;;;;;;;5094564;28;20201;-67
2023/09/12 07:07:50;;;;;;;7.28;4.45;;;;;;;;;;5089590;28;20278;-66
2023/09/12 07:10:19;;;;;;;9.13;5.65;;;;;;;;;;5090705;28;20205;-66
2023/09/12 07:12:46;;;;;;;9.25;5.57;;;;;;;;;;5093394;28;20198;-68
2023/09/12 07:15:12;;;;;;;4.72;4.30;;;;;;;;;;5090910;28;20193;-67
2023/09/12 07:17:39;;;;;;;5.63;5.03;;;;;;;;;;5091678;28;20204;-66
2023/09/12 07:20:11;;;;;;;5.78;4.28;;;;;;;;;;5095091;28;20217;-67
2023/09/12 07:22:37;;;;;;;11.68;5.45;;;;;;;;;;5094296;28;20711;-66
2023/09/12 07:25:04;;;;;;;12.48;6.15;;;;;;;;;;5093112;28;20197;-67
2023/09/12 07:27:32;;;;;;;8.82;5.38;;;;;;;;;;5095038;28;20259;-70
2023/09/12 07:29:58;;;;;;;9.75;4.60;;;;;;;;;;5092115;28;20748;-68
2023/09/12 07:32:25;;;;;;;16.85;7.63;;;;;;;;;;5091089;28;20236;-67
2023/09/12 07:34:51;;;;;;;10.63;5.88;;;;;;;;;;5091968;28;20233;-68
2023/09/12 07:37:18;;;;;;;17.65;14.13;;;;;;;;;;5085076;28;20205;-69
2023/09/12 07:39:44;;;;;;;39.83;26.85;;;;;;;;;;5091853;28;20229;-69
2023/09/12 07:42:11;;;;;;;21.45;10.60;;;;;;;;;;5086275;28;20850;-72
2023/09/12 07:44:39;;;;;;;54.28;26.17;;;;;;;;;;5093063;28;20213;-71
2023/09/12 07:47:05;;;;;;;31.50;19.77;;;;;;;;;;5088591;28;20679;-72
2023/09/12 07:49:32;;;;;;;19.92;11.32;;;;;;;;;;5090943;28;20194;-69
2023/09/12 07:51:58;;;;;;;16.55;12.13;;;;;;;;;;5092872;28;20201;-69
2023/09/12 07:54:25;;;;;;;8.55;6.88;;;;;;;;;;5093409;28;20861;-65
2023/09/12 07:56:51;;;;;;;12.68;8.18;;;;;;;;;;5089789;28;20193;-67
2023/09/12 07:59:18;;;;;;;9.27;5.63;;;;;;;;;;5093673;28;20274;-67
2023/09/12 08:01:46;;;;;;;10.48;6.38;;;;;;;;;;5092651;28;20259;-65
2023/09/12 08:04:14;;;;;;;6.38;5.07;;;;;;;;;;5096454;28;20193;-68
2023/09/12 08:06:41;;;;;;;14.23;7.18;;;;;;;;;;5095578;28;20202;-67
2023/09/12 08:09:08;;;;;;;7.50;4.95;;;;;;;;;;5094123;28;20754;-67
2023/09/12 08:11:34;;;;;;;7.20;5.00;;;;;;;;;;5092211;28;20666;-66
2023/09/12 08:14:01;;;;;;;5.78;5.03;;;;;;;;;;5092157;28;20196;-67
2023/09/12 08:16:27;;;;;;;5.72;4.47;;;;;;;;;;5097762;28;20209;-67
2023/09/12 08:18:55;;;;;;;7.45;4.78;;;;;;;;;;5092255;28;20697;-68
2023/09/12 08:21:21;;;;;;;14.52;4.60;;;;;;;;;;5094381;28;20261;-68
2023/09/12 08:23:48;;;;;;;11.68;4.53;;;;;;;;;;5094405;28;20281;-67
2023/09/12 08:26:14;;;;;;;6.45;5.13;;;;;;;;;;5090974;28;20281;-66
2023/09/12 08:28:41;;;;;;;6.00;4.75;;;;;;;;;;5091108;28;20205;-65
2023/09/12 08:31:07;;;;;;;9.35;4.85;;;;;;;;;;5088320;28;20387;-66
2023/09/12 08:33:34;;;;;;;13.43;4.35;;;;;;;;;;5092911;28;20197;-67
2023/09/12 08:36:02;;;;;;;3.80;3.40;;;;;;;;;;5094936;28;20205;-67
2023/09/12 08:38:28;;;;;;;5.55;3.58;;;;;;;;;;5089943;28;20196;-66
2023/09/12 08:40:55;;;;;;;5.18;3.50;;;;;;;;;;5089676;28;20276;-65
2023/09/12 08:43:21;;;;;;;4.15;3.17;;;;;;;;;;5091296;28;20206;-65
2023/09/12 08:45:48;;;;;;;10.57;3.30;;;;;;;;;;5096460;28;20201;-64
2023/09/12 08:48:15;;;;;;;3.20;2.90;;;;;;;;;;5095493;28;20206;-65
2023/09/12 08:50:42;;;;;;;8.25;3.80;;;;;;;;;;5092926;28;20621;-65
2023/09/12 08:53:09;;;;;;;7.53;3.63;;;;;;;;;;5093435;28;20704;-66
2023/09/12 08:55:36;;;;;;;4.93;3.30;;;;;;;;;;5093852;28;20567;-66
2023/09/12 08:58:03;;;;;;;3.67;3.33;;;;;;;;;;5091507;28;20261;-67
2023/09/12 09:00:30;;;;;;;11.65;4.00;;;;;;;;;;5095670;28;20634;-68
2023/09/12 09:02:56;;;;;;;7.28;3.95;;;;;;;;;;5095044;28;20265;-67
2023/09/12 09:05:23;;;;;;;4.90;3.33;;;;;;;;;;5093154;28;20277;-66
2023/09/12 09:07:50;;;;;;;7.90;3.03;;;;;;;;;;5087719;28;20578;-66
2023/09/12 09:10:18;;;;;;;8.02;3.28;;;;;;;;;;5093202;28;20205;-66
2023/09/12 09:12:45;;;;;;;8.43;3.40;;;;;;;;;;5092368;28;20257;-67
2023/09/12 09:15:22;;;;;;;5.55;2.88;;;;;;;;;;5096316;28;20308;-66
2023/09/12 09:17:49;;;;;;;5.95;3.63;;;;;;;;;;5099634;28;20287;-65
2023/09/12 09:20:22;;;;;;;8.68;3.47;;;;;;;;;;5094436;28;20651;-66
2023/09/12 09:22:56;;;;;;;7.15;3.25;;;;;;;;;;5089445;28;20323;-65
2023/09/12 09:25:24;;;;;;;7.25;2.38;;;;;;;;;;5097657;28;20232;-64
2023/09/12 09:27:50;;;;;;;10.77;3.45;;;;;;;;;;5089456;28;20230;-65
2023/09/12 09:30:18;;;;;;;3.80;3.10;;;;;;;;;;5090102;28;20613;-66
2023/09/12 09:32:46;;;;;;;5.78;2.35;;;;;;;;;;5097092;28;20220;-66
2023/09/12 09:35:13;;;;;;;7.95;2.78;;;;;;;;;;5098964;28;20225;-65
2023/09/12 09:37:40;;;;;;;5.03;2.88;;;;;;;;;;5099675;28;20334;-66
2023/09/12 09:40:08;;;;;;;4.45;3.17;;;;;;;;;;5093494;28;20762;-65
2023/09/12 09:42:36;;;;;;;7.75;3.10;;;;;;;;;;5085710;28;20690;-67
2023/09/12 09:45:02;;;;;;;2.95;2.53;;;;;;;;;;5101024;28;20198;-66
2023/09/12 09:47:29;;;;;;;7.28;3.67;;;;;;;;;;5094929;28;20197;-66
2023/09/12 09:49:59;;;;;;;3.60;2.75;;;;;;;;;;5096311;28;20679;-65
2023/09/12 09:52:26;;;;;;;9.00;2.70;;;;;;;;;;5095775;28;20746;-66
2023/09/12 09:54:52;;;;;;;3.92;3.53;;;;;;;;;;5094270;28;20198;-67
2023/09/12 09:57:19;;;;;;;5.55;2.80;;;;;;;;;;5100540;28;20201;-65
2023/09/12 09:59:51;;;;;;;4.68;3.08;;;;;;;;;;5098994;28;20287;-67
2023/09/12 10:02:22;;;;;;;3.55;3.25;;;;;;;;;;5097785;28;20691;-67
2023/09/12 10:04:49;;;;;;;3.92;3.42;;;;;;;;;;5102544;28;20574;-67
2023/09/12 10:07:16;;;;;;;12.40;3.70;;;;;;;;;;5092049;28;20702;-67
2023/09/12 10:09:44;;;;;;;9.45;3.25;;;;;;;;;;5095992;28;20198;-65
2023/09/12 10:12:11;;;;;;;11.38;3.30;;;;;;;;;;5095502;28;20246;-66
2023/09/12 10:14:38;;;;;;;6.82;2.63;;;;;;;;;;5096812;28;20663;-67
2023/09/12 10:17:06;;;;;;;3.92;2.78;;;;;;;;;;5100806;28;20201;-66
2023/09/12 10:19:33;;;;;;;8.13;3.42;;;;;;;;;;5102168;28;20657;-67
2023/09/12 10:22:05;;;;;;;8.68;2.95;;;;;;;;;;5091766;28;20206;-67
2023/09/12 10:24:31;;;;;;;6.03;3.90;;;;;;;;;;5098951;28;20204;-67
2023/09/12 10:26:59;;;;;;;5.22;2.83;;;;;;;;;;5097879;28;20201;-66
2023/09/12 10:29:25;;;;;;;4.47;3.10;;;;;;;;;;5093476;28;20258;-66
2023/09/12 10:31:52;;;;;;;3.50;3.13;;;;;;;;;;5098265;28;20194;-68
2023/09/12 10:34:21;;;;;;;5.22;3.38;;;;;;;;;;5095657;28;20722;-66
2023/09/12 10:36:48;;;;;;;3.78;2.75;;;;;;;;;;5097073;28;20200;-66
2023/09/12 10:39:15;;;;;;;6.60;3.65;;;;;;;;;;5096440;28;20205;-68
2023/09/12 10:41:42;;;;;;;4.30;3.22;;;;;;;;;;5091137;28;20212;-66
2023/09/12 10:44:10;;;;;;;8.75;3.28;;;;;;;;;;5093585;28;20722;-66
2023/09/12 10:46:37;;;;;;;4.05;3.03;;;;;;;;;;5093260;28;20198;-65
2023/09/12 10:49:04;;;;;;;7.80;3.17;;;;;;;;;;5093209;28;20241;-67
2023/09/12 10:51:32;;;;;;;5.90;3.35;;;;;;;;;;5093052;28;20857;-67
2023/09/12 10:53:58;;;;;;;6.65;3.63;;;;;;;;;;5096697;28;20275;-66
2023/09/12 10:56:32;;;;;;;9.15;3.00;;;;;;;;;;5095995;28;20206;-66
2023/09/12 10:59:14;;;;;;;4.93;2.88;;;;;;;;;;5094492;28;20197;-65
2023/09/12 11:01:42;;;;;;;3.72;3.42;;;;;;;;;;5095515;28;20253;-65
2023/09/12 11:04:28;;;;;;;6.15;3.25;;;;;;;;;;5091218;28;20271;-66
2023/09/12 11:06:58;;;;;;;7.55;3.28;;;;;;;;;;5091241;28;20205;-63
2023/09/12 11:09:25;;;;;;;5.07;2.88;;;;;;;;;;5090084;28;20209;-66
2023/09/12 11:11:56;;;;;;;5.47;2.92;;;;;;;;;;5091694;28;20198;-65
2023/09/12 11:14:24;;;;;;;4.50;3.45;;;;;;;;;;5092670;28;20281;-65
2023/09/12 11:17:17;;;;;;;6.68;3.42;;;;;;;;;;5096955;28;20197;-64
2023/09/12 11:19:44;;;;;;;4.43;2.90;;;;;;;;;;5050446;28;20260;-66
2023/09/12 11:22:23;;;;;;;5.07;2.78;;;;;;;;;;5094809;28;20288;-65
2023/09/12 11:24:49;;;;;;;2.83;2.63;;;;;;;;;;5090303;28;20286;-66
2023/09/12 11:27:17;;;;;;;5.82;3.30;;;;;;;;;;5093360;28;20270;-66
2023/09/12 11:29:43;;;;;;;3.08;2.80;;;;;;;;;;5098481;28;20594;-66
2023/09/12 11:32:10;;;;;;;7.30;2.88;;;;;;;;;;5094973;28;20777;-66
2023/09/12 11:34:37;;;;;;;7.60;3.55;;;;;;;;;;5088550;28;20320;-65
2023/09/12 11:37:04;;;;;;;3.55;3.22;;;;;;;;;;5096125;28;20278;-66
2023/09/12 11:39:33;;;;;;;4.43;2.95;;;;;;;;;;5100239;28;20205;-66
2023/09/12 11:42:01;;;;;;;5.53;3.10;;;;;;;;;;5095932;28;20205;-67
2023/09/12 11:44:28;;;;;;;7.40;3.33;;;;;;;;;;5097263;28;20302;-66
2023/09/12 11:46:55;;;;;;;3.72;3.30;;;;;;;;;;5096279;28;20650;-66
2023/09/12 11:49:22;;;;;;;5.88;3.78;;;;;;;;;;5095190;28;20282;-67
2023/09/12 11:51:48;;;;;;;5.93;3.58;;;;;;;;;;5099196;28;20241;-65
2023/09/12 11:54:15;;;;;;;5.28;3.50;;;;;;;;;;5098476;28;20702;-65
2023/09/12 11:56:43;;;;;;;8.48;3.10;;;;;;;;;;5095174;28;20202;-66
2023/09/12 11:59:09;;;;;;;6.30;3.70;;;;;;;;;;5097057;28;20639;-65
2023/09/12 12:01:36;;;;;;;4.55;3.45;;;;;;;;;;5094006;28;20314;-63
2023/09/12 12:04:02;;;;;;;6.25;4.10;;;;;;;;;;5093282;28;20653;-66
2023/09/12 12:06:30;;;;;;;3.50;3.20;;;;;;;;;;5094588;28;20193;-65
2023/09/12 12:08:56;;;;;;;10.65;3.40;;;;;;;;;;5097414;28;20663;-66
2023/09/12 12:11:23;;;;;;;6.97;3.90;;;;;;;;;;5094601;28;20220;-65
2023/09/12 12:13:51;;;;;;;4.65;3.17;;;;;;;;;;5093066;28;20266;-66
2023/09/12 12:16:18;;;;;;;7.82;3.53;;;;;;;27.80;nan;95237.41;5096608;28;20587;-67
2023/09/12 12:18:44;;;;;;;8.55;3.45;;;;;;;;;;5097334;28;20274;-66
2023/09/12 12:21:11;;;;;;;8.93;3.35;;;;;;;;;;5100145;28;20224;-65
2023/09/12 12:23:37;;;;;;;13.13;2.72;;;;;;;;;;5095187;28;20273;-65
2023/09/12 12:26:04;;;;;;;6.72;2.80;;;;;;;;;;5095855;28;20206;-66
2023/09/12 12:28:32;;;;;;;5.53;2.70;;;;;;;;;;5095408;28;20243;-66
2023/09/12 12:31:00;;;;;;;4.75;2.95;;;;;;;;;;5094589;28;20194;-63
2023/09/12 12:33:27;;;;;;;4.75;3.03;;;;;;;;;;5090073;28;20225;-67
2023/09/12 12:36:00;;;;;;;6.28;2.78;;;;;;;;;;5094553;28;20275;-63
2023/09/12 12:38:26;;;;;;;3.70;2.85;;;;;;;;;;5095353;28;20266;-67
2023/09/12 12:40:52;;;;;;;3.83;2.95;;;;;;;;;;5096136;28;20301;-66
2023/09/12 12:43:19;;;;;;;6.28;3.50;;;;;;;;;;5089891;28;20292;-65
2023/09/12 12:45:53;;;;;;;8.05;2.83;;;;;;;;;;5092492;28;20280;-65
2023/09/12 12:48:29;;;;;;;8.70;2.80;;;;;;;;;;5090184;28;20254;-64
2023/09/12 12:50:56;;;;;;;5.63;2.88;;;;;;;;;;5093436;28;20237;-66
2023/09/12 12:53:37;;;;;;;6.72;3.22;;;;;;;;;;5095116;28;20245;-65
2023/09/12 12:56:04;;;;;;;3.75;3.15;;;;;;;;;;5092047;28;20225;-66
2023/09/12 12:58:30;;;;;;;4.30;3.15;;;;;;;;;;5094268;28;20228;-66
2023/09/12 13:00:56;;;;;;;6.10;2.88;;;;;;;;;;5093073;28;20297;-65
2023/09/12 13:03:24;;;;;;;7.20;3.30;;;;;;;;;;5090741;28;20240;-66
2023/09/12 13:05:51;;;;;;;6.63;3.38;;;;;;;;;;5094916;28;20225;-66
2023/09/12 13:08:18;;;;;;;3.33;3.03;;;;;;;;;;5094312;28;20594;-66
2023/09/12 13:10:44;;;;;;;3.47;3.28;;;;;;;;;;5094968;28;20387;-66
2023/09/12 13:13:11;;;;;;;8.30;3.22;;;;;;;;;;5098654;28;20226;-67
2023/09/12 13:15:37;;;;;;;3.20;2.60;;;;;;;;;;5098512;28;20289;-65
2023/09/12 13:18:05;;;;;;;4.03;3.58;;;;;;;;;;5098010;28;20733;-66
2023/09/12 13:20:32;;;;;;;5.30;3.03;;;;;;;;;;5094527;28;20609;-66
2023/09/12 13:22:59;;;;;;;6.97;3.17;;;;;;;;;;5095755;28;20656;-68
2023/09/12 13:25:25;;;;;;;5.22;2.35;;;;;;;;;;5097195;28;20271;-66
2023/09/12 13:27:52;;;;;;;6.97;3.40;;;;;;;;;;5097812;28;20233;-66
2023/09/12 13:30:18;;;;;;;5.47;2.92;;;;;;;;;;5099010;28;20721;-66
2023/09/12 13:32:46;;;;;;;6.68;3.33;;;;;;;;;;5095122;28;20228;-66
2023/09/12 13:35:12;;;;;;;4.70;3.08;;;;;;;;;;5096315;28;20306;-66
2023/09/12 13:37:40;;;;;;;4.43;3.35;;;;;;;;;;5099649;28;20258;-65
2023/09/12 13:40:08;;;;;;;5.65;2.80;;;;;;;;;;5096358;28;20229;-66
2023/09/12 13:42:35;;;;;;;6.75;3.03;;;;;;;;;;5094930;28;20560;-66
2023/09/12 13:45:02;;;;;;;6.57;2.65;;;;;;;;;;5096449;28;20666;-66
2023/09/12 13:47:28;;;;;;;2.92;2.72;;;;;;;;;;5098247;28;20589;-65
2023/09/12 13:49:56;;;;;;;4.80;2.95;;;;;;;;;;5092356;28;20232;-65
2023/09/12 13:52:23;;;;;;;8.02;2.88;;;;;;;;;;5098818;28;20218;-67
2023/09/12 13:54:50;;;;;;;4.80;3.08;;;;;;;;;;5099371;28;20284;-66
2023/09/12 13:57:17;;;;;;;4.25;3.03;;;;;;;;;;5095898;28;20248;-66
2023/09/12 13:59:44;;;;;;;7.10;2.95;;;;;;;;;;5096384;28;20290;-65
2023/09/12 14:02:10;;;;;;;6.68;2.85;;;;;;;;;;5097780;28;20308;-66
2023/09/12 14:04:36;;;;;;;8.90;3.20;;;;;;;;;;5098400;28;20229;-65
2023/09/12 14:07:03;;;;;;;3.95;3.10;;;;;;;;;;5094575;28;20645;-66
2023/09/12 14:09:30;;;;;;;8.50;3.33;;;;;;;;;;5091963;28;20198;-66
2023/09/12 14:11:57;;;;;;;6.13;3.20;;;;;;;;;;5095129;28;20255;-65
2023/09/12 14:14:24;;;;;;;5.20;2.67;;;;;;;;;;5093086;28;20239;-66
2023/09/12 14:16:50;;;;;;;10.75;3.05;;;;;;;;;;5093176;28;20282;-65
2023/09/12 14:19:17;;;;;;;4.10;3.00;;;;;;;;;;5093781;28;20209;-66
2023/09/12 14:21:44;;;;;;;3.55;2.78;;;;;;;;;;5094576;28;20252;-65
2023/09/12 14:24:10;;;;;;;3.60;3.17;;;;;;;;;;5096409;28;20207;-65
2023/09/12 14:26:37;;;;;;;5.78;3.25;;;;;;;;;;5091596;28;20678;-65
2023/09/12 14:29:04;;;;;;;4.65;3.08;;;;;;;;;;5095507;28;20221;-67
2023/09/12 14:31:31;;;;;;;7.60;2.97;;;;;;;;;;5095861;28;20220;-68
2023/09/12 14:33:57;;;;;;;8.40;2.80;;;;;;;;;;5096894;28;20752;-66
2023/09/12 14:36:24;;;;;;;5.78;3.30;;;;;;;;;;5095948;28;20229;-67
2023/09/12 14:38:50;;;;;;;3.92;2.85;;;;;;;;;;5099009;28;20236;-68